Brownsville, Texas
Current Conditions -  °F | °C
As of 5:53 PM on Friday 31 Oct 2014 (Local Time) from KBRO Reporting Station
Few Clouds Few Clouds  
Wind Chill: 77°   Ceiling: Unl
Heat Index: 79°   Visibility: 10mi
Dew Point: 62°   Wind: 10mph
Humidity: 60%   Direction: 20°NNE
Pressure: 30.14"   Gusts: 24mph
Location:  25.9°N, 97.49°W
Report Text: KBRO 312253Z 02009G21KT 10SM FEW100 25/17 A3014 RMK AO2 SLP205 T02500167
Loading
Personal Weather Stations






























Interactive Weather Map
Tropical Storm Tracking
New forecast layout! Learn more

10-Day Weather Forecast

Advertisements
Track Severe Weather on mobile